createdAt,value
2023-01-13T00:01:14.116Z,48.65
2023-01-13T00:04:01.006Z,60.90
2023-01-13T00:06:46.857Z,45.83
2023-01-13T00:09:32.808Z,46.22
2023-01-13T00:12:18.973Z,49.90
2023-01-13T00:15:04.906Z,56.70
2023-01-13T00:17:51.110Z,54.92
2023-01-13T00:20:37.005Z,47.03
2023-01-13T00:23:24.845Z,43.28
2023-01-13T00:26:16.415Z,47.33
2023-01-13T00:29:02.201Z,42.70
2023-01-13T00:31:49.982Z,44.20
2023-01-13T00:34:35.859Z,42.03
2023-01-13T00:37:21.572Z,39.47
2023-01-13T00:40:08.113Z,42.50
2023-01-13T00:43:12.364Z,41.33
2023-01-13T00:45:58.998Z,44.58
2023-01-13T00:48:45.030Z,48.22
2023-01-13T00:51:30.922Z,47.35
2023-01-13T00:54:16.679Z,46.55
2023-01-13T00:57:02.624Z,51.78
2023-01-13T00:59:49.611Z,47.83
2023-01-13T01:02:35.553Z,45.80
2023-01-13T01:05:21.359Z,49.38
2023-01-13T01:08:07.411Z,49.80
2023-01-13T01:11:04.155Z,50.85
2023-01-13T01:13:52.576Z,49.92
2023-01-13T01:16:40.036Z,49.90
2023-01-13T01:19:25.919Z,51.45
2023-01-13T01:22:11.809Z,48.90
2023-01-13T01:24:58.314Z,53.22
2023-01-13T01:27:44.147Z,57.67
2023-01-13T01:30:30.081Z,58.53
2023-01-13T01:33:16.858Z,65.78
2023-01-13T01:36:03.679Z,61.72
2023-01-13T01:38:50.191Z,58.88
2023-01-13T01:41:37.016Z,57.60
2023-01-13T01:44:55.377Z,53.22
2023-01-13T01:47:42.418Z,55.17
2023-01-13T01:50:29.046Z,51.67
2023-01-13T01:53:17.747Z,47.30
2023-01-13T01:56:03.840Z,54.28
2023-01-13T01:58:51.235Z,53.33
2023-01-13T02:01:37.957Z,50.55
2023-01-13T02:04:28.016Z,52.65
2023-01-13T02:07:13.997Z,49.95
2023-01-13T02:10:05.019Z,46.10
2023-01-13T02:12:51.412Z,49.15
2023-01-13T02:16:08.875Z,49.20
2023-01-13T02:19:36.744Z,46.22
2023-01-13T02:22:37.568Z,56.03
2023-01-13T02:25:44.576Z,53.22
2023-01-13T02:29:10.644Z,51.05
2023-01-13T02:32:00.830Z,53.67
2023-01-13T02:34:55.758Z,49.03
2023-01-13T02:37:43.619Z,50.67
2023-01-13T02:40:37.307Z,52.75
2023-01-13T02:43:46.225Z,46.50
2023-01-13T02:46:43.287Z,47.65
2023-01-13T02:49:34.268Z,44.85
2023-01-13T02:52:33.785Z,51.28
2023-01-13T02:55:28.489Z,44.65
2023-01-13T02:58:17.957Z,47.75
2023-01-13T03:01:04.169Z,47.97
2023-01-13T03:03:50.962Z,42.45
2023-01-13T03:06:54.662Z,46.15
2023-01-13T03:09:45.532Z,46.20
2023-01-13T03:12:44.570Z,41.92
2023-01-13T03:15:40.852Z,42.40
2023-01-13T03:18:47.943Z,44.95
2023-01-13T03:22:18.357Z,40.40
2023-01-13T03:25:16.476Z,46.53
2023-01-13T03:28:04.387Z,41.83
2023-01-13T03:30:54.307Z,40.70
2023-01-13T03:33:56.920Z,41.38
2023-01-13T03:36:44.341Z,42.60
2023-01-13T03:39:33.624Z,42.83
2023-01-13T03:42:23.918Z,43.33
2023-01-13T03:45:16.167Z,44.90
2023-01-13T03:48:06.863Z,45.63
2023-01-13T03:50:56.499Z,43.70
2023-01-13T03:53:56.640Z,42.17
2023-01-13T03:56:46.272Z,45.97
2023-01-13T03:59:35.012Z,44.38
2023-01-13T04:02:47.351Z,42.67
2023-01-13T04:05:36.065Z,45.45
2023-01-13T04:08:25.158Z,44.92
2023-01-13T04:11:18.557Z,46.13
2023-01-13T04:14:06.261Z,51.80
2023-01-13T04:16:52.972Z,48.05
2023-01-13T04:19:39.135Z,45.22
2023-01-13T04:22:25.006Z,45.47
2023-01-13T04:25:11.626Z,46.25
2023-01-13T04:27:57.662Z,45.70
2023-01-13T04:30:44.304Z,43.47
2023-01-13T04:33:30.481Z,39.63
2023-01-13T04:36:16.320Z,44.15
2023-01-13T04:39:02.822Z,39.75
2023-01-13T04:42:02.652Z,42.28
2023-01-13T04:44:48.333Z,38.45
2023-01-13T04:47:34.286Z,39.30
2023-01-13T04:50:20.728Z,42.97
2023-01-13T04:53:07.325Z,40.67
2023-01-13T04:55:53.054Z,37.08
2023-01-13T04:58:38.970Z,39.38
2023-01-13T05:01:24.874Z,36.40
2023-01-13T05:04:10.728Z,40.90
2023-01-13T05:06:56.824Z,41.25
2023-01-13T05:09:42.782Z,41.38
2023-01-13T05:12:47.104Z,41.78
2023-01-13T05:15:51.726Z,40.15
2023-01-13T05:18:37.872Z,42.13
2023-01-13T05:21:42.336Z,46.17
2023-01-13T05:24:46.877Z,45.30
2023-01-13T05:27:40.955Z,43.08
2023-01-13T05:30:30.119Z,51.10
2023-01-13T05:33:17.963Z,51.92
2023-01-13T05:36:04.369Z,51.92
2023-01-13T05:39:01.862Z,46.45
2023-01-13T05:42:06.666Z,43.58
2023-01-13T05:44:53.386Z,49.70
2023-01-13T05:47:39.115Z,44.17
2023-01-13T05:50:25.162Z,43.28
2023-01-13T05:53:11.740Z,46.78
2023-01-13T05:55:59.044Z,43.97
2023-01-13T05:58:44.954Z,47.80
2023-01-13T06:01:31.180Z,44.40
2023-01-13T06:04:17.148Z,47.67
2023-01-13T06:07:03.300Z,47.35
2023-01-13T06:09:49.159Z,45.45
2023-01-13T06:12:35.010Z,46.17
2023-01-13T06:15:21.539Z,42.75
2023-01-13T06:18:07.328Z,43.85
2023-01-13T06:20:53.107Z,49.03
2023-01-13T06:23:39.141Z,42.20
2023-01-13T06:26:25.249Z,46.60
2023-01-13T06:29:14.098Z,42.72
2023-01-13T06:32:03.690Z,48.85
2023-01-13T06:34:54.884Z,44.88
2023-01-13T06:37:43.484Z,48.08
2023-01-13T06:40:29.516Z,51.80
2023-01-13T06:43:16.609Z,53.92
2023-01-13T06:46:03.111Z,68.13
2023-01-13T06:48:48.950Z,58.95
2023-01-13T06:51:35.090Z,65.95
2023-01-13T06:54:21.468Z,70.35
2023-01-13T06:57:07.524Z,60.45
2023-01-13T06:59:53.502Z,73.18
2023-01-13T07:02:39.763Z,62.95
2023-01-13T07:05:25.522Z,72.07
2023-01-13T07:08:11.394Z,67.70
2023-01-13T07:10:57.118Z,65.38
2023-01-13T07:14:01.501Z,63.97
2023-01-13T07:16:47.753Z,56.67
2023-01-13T07:19:33.393Z,54.17
2023-01-13T07:22:19.474Z,52.63
2023-01-13T07:25:05.883Z,57.83
2023-01-13T07:27:51.512Z,65.70
2023-01-13T07:30:38.587Z,67.70
2023-01-13T07:33:24.852Z,51.95
2023-01-13T07:36:11.212Z,50.38
2023-01-13T07:38:56.931Z,50.05
2023-01-13T07:42:01.131Z,40.92
2023-01-13T07:44:47.143Z,42.67
2023-01-13T07:47:33.319Z,44.70
2023-01-13T07:50:19.897Z,38.50
2023-01-13T07:53:05.817Z,40.17
2023-01-13T07:55:56.376Z,37.55
2023-01-13T07:58:44.965Z,39.30
2023-01-13T08:01:32.263Z,41.22
2023-01-13T08:04:18.095Z,37.28
2023-01-13T08:07:04.699Z,37.00
2023-01-13T08:09:50.763Z,42.70
2023-01-13T08:12:57.151Z,38.40
2023-01-13T08:15:50.439Z,33.20
2023-01-13T08:18:37.711Z,34.25
2023-01-13T08:21:23.953Z,36.63
2023-01-13T08:24:10.532Z,33.63
2023-01-13T08:26:56.551Z,32.60
2023-01-13T08:29:42.676Z,31.60
2023-01-13T08:32:28.563Z,42.40
2023-01-13T08:35:15.463Z,34.95
2023-01-13T08:38:01.389Z,32.38
2023-01-13T08:40:47.233Z,33.97
2023-01-13T08:43:33.049Z,30.45
2023-01-13T08:46:21.719Z,36.85
2023-01-13T08:49:07.524Z,33.10
2023-01-13T08:51:53.966Z,30.42
2023-01-13T08:54:40.000Z,31.15
2023-01-13T08:57:25.785Z,30.80
2023-01-13T09:00:12.359Z,35.20
2023-01-13T09:02:59.204Z,29.83
2023-01-13T09:05:45.167Z,32.08
2023-01-13T09:08:31.059Z,37.63
2023-01-13T09:11:38.059Z,33.72
2023-01-13T09:14:25.991Z,31.88
2023-01-13T09:17:12.107Z,39.40
2023-01-13T09:19:58.103Z,28.58
2023-01-13T09:22:44.051Z,27.65
2023-01-13T09:25:30.936Z,25.23
2023-01-13T09:28:16.558Z,28.98
2023-01-13T09:31:02.559Z,29.80
2023-01-13T09:34:07.102Z,38.65
2023-01-13T09:36:54.252Z,32.25
2023-01-13T09:39:40.113Z,34.53
2023-01-13T09:42:56.755Z,32.38
2023-01-13T09:45:48.010Z,39.58
2023-01-13T09:48:52.061Z,39.83
2023-01-13T09:51:43.802Z,33.60
2023-01-13T09:54:45.240Z,28.85
2023-01-13T09:57:35.088Z,34.53
2023-01-13T10:00:24.961Z,37.97
2023-01-13T10:03:30.380Z,42.70
2023-01-13T10:06:24.562Z,54.63
2023-01-13T10:09:16.089Z,55.78
2023-01-13T10:12:21.141Z,50.25
2023-01-13T10:15:14.928Z,47.33
2023-01-13T10:18:19.402Z,57.13
2023-01-13T10:21:19.580Z,55.00
2023-01-13T10:24:11.768Z,53.47
2023-01-13T10:27:04.165Z,61.28
2023-01-13T10:29:50.162Z,51.05
2023-01-13T10:32:36.072Z,50.83
2023-01-13T10:35:50.101Z,53.83
2023-01-13T10:38:37.234Z,45.67
2023-01-13T10:41:25.494Z,47.58
2023-01-13T10:44:18.982Z,48.17
2023-01-13T10:47:20.555Z,49.55
2023-01-13T10:50:09.344Z,53.17
2023-01-13T10:53:01.046Z,50.10
2023-01-13T10:56:03.243Z,44.75
2023-01-13T10:58:49.769Z,52.03
2023-01-13T11:01:35.741Z,46.15
2023-01-13T11:04:58.232Z,54.13
2023-01-13T11:07:52.644Z,46.75
2023-01-13T11:10:47.114Z,42.53
2023-01-13T11:13:58.577Z,41.22
2023-01-13T11:16:53.039Z,26.42
2023-01-13T11:19:42.833Z,31.63
2023-01-13T11:22:33.535Z,34.25
2023-01-13T11:25:23.678Z,29.85
2023-01-13T11:28:22.081Z,28.52
2023-01-13T11:31:18.255Z,26.02
2023-01-13T11:34:12.853Z,25.17
2023-01-13T11:37:00.992Z,32.13
2023-01-13T11:39:56.320Z,33.53
2023-01-13T11:42:49.193Z,28.50
2023-01-13T11:45:44.684Z,28.65
2023-01-13T11:48:36.490Z,26.70
2023-01-13T11:51:40.894Z,21.38
2023-01-13T11:54:50.151Z,24.40
2023-01-13T11:57:52.787Z,22.00
2023-01-13T12:01:38.141Z,18.95
2023-01-13T12:04:28.094Z,19.02
2023-01-13T12:07:24.991Z,17.88
2023-01-13T12:10:34.715Z,32.22
2023-01-13T12:13:33.765Z,32.65
2023-01-13T12:16:26.206Z,34.17
2023-01-13T12:19:29.533Z,37.03
2023-01-13T12:22:22.549Z,31.60
2023-01-13T12:25:22.046Z,40.33
2023-01-13T12:28:15.600Z,38.20
2023-01-13T12:31:03.020Z,34.45
2023-01-13T12:34:04.100Z,30.48
2023-01-13T12:37:10.524Z,32.05
2023-01-13T12:40:02.612Z,32.38
2023-01-13T12:43:22.462Z,37.70
2023-01-13T12:46:23.769Z,30.65
2023-01-13T12:49:24.447Z,24.83
2023-01-13T12:52:14.031Z,30.02
2023-01-13T12:55:07.712Z,37.08
2023-01-13T12:57:56.990Z,32.47
2023-01-13T13:00:44.865Z,37.65
2023-01-13T13:03:35.866Z,30.98
2023-01-13T13:06:29.735Z,45.35
2023-01-13T13:09:32.231Z,32.05
2023-01-13T13:12:49.364Z,29.10
2023-01-13T13:15:36.265Z,59.38
2023-01-13T13:18:27.545Z,46.25
2023-01-13T13:21:13.451Z,42.20
2023-01-13T13:24:09.324Z,56.00
2023-01-13T13:26:55.413Z,37.55
2023-01-13T13:29:50.297Z,56.38
2023-01-13T13:32:54.874Z,40.95
2023-01-13T13:36:06.091Z,34.40
2023-01-13T13:39:20.574Z,25.83
2023-01-13T13:42:54.650Z,38.00
2023-01-13T13:46:09.266Z,49.13
2023-01-13T13:48:55.614Z,62.17
2023-01-13T13:51:49.268Z,40.25
2023-01-13T13:54:35.554Z,30.15
2023-01-13T13:57:32.796Z,39.03
2023-01-13T14:00:21.598Z,26.58
2023-01-13T14:03:22.087Z,27.35
2023-01-13T14:06:09.028Z,26.60
2023-01-13T14:08:55.101Z,26.10
2023-01-13T14:11:41.270Z,45.15
2023-01-13T14:14:28.194Z,60.47
2023-01-13T14:17:23.732Z,40.20
2023-01-13T14:20:16.368Z,41.33
2023-01-13T14:25:51.841Z,28.33
2023-01-13T14:28:39.010Z,30.40
2023-01-13T14:31:25.186Z,28.10
2023-01-13T14:34:31.154Z,29.42
2023-01-13T14:37:29.428Z,30.63
2023-01-13T14:40:35.858Z,32.97
2023-01-13T14:43:24.974Z,38.58
2023-01-13T14:46:11.319Z,47.10
2023-01-13T14:49:01.269Z,36.88
2023-01-13T14:51:47.227Z,43.53
2023-01-13T14:54:46.785Z,40.67
2023-01-13T14:57:37.003Z,44.15
2023-01-13T15:00:25.792Z,58.00
2023-01-13T15:03:15.207Z,57.50
2023-01-13T15:06:01.645Z,52.05
2023-01-13T15:08:47.600Z,53.63
2023-01-13T15:11:33.384Z,54.42
2023-01-13T15:14:23.638Z,52.67
2023-01-13T15:17:16.424Z,56.70
2023-01-13T15:20:03.240Z,59.08
2023-01-13T15:22:49.804Z,49.58
2023-01-13T15:25:39.371Z,50.08
2023-01-13T15:28:26.588Z,54.65
2023-01-13T15:31:12.371Z,50.22
2023-01-13T15:34:00.655Z,50.42
2023-01-13T15:36:46.921Z,44.50
2023-01-13T15:39:32.750Z,57.90
2023-01-13T15:42:37.010Z,65.68
2023-01-13T15:45:41.809Z,55.28
2023-01-13T15:48:32.081Z,62.63
2023-01-13T15:51:19.211Z,76.20
2023-01-13T15:54:04.941Z,90.95
2023-01-13T15:56:51.379Z,81.55
2023-01-13T15:59:37.228Z,92.15
2023-01-13T16:02:23.754Z,86.30
2023-01-13T16:05:10.139Z,82.63
2023-01-13T16:07:56.064Z,77.35
2023-01-13T16:10:42.711Z,83.05
2023-01-13T16:13:28.981Z,76.15
2023-01-13T16:16:23.900Z,66.47
2023-01-13T16:19:11.685Z,62.85
2023-01-13T16:21:59.823Z,61.45
2023-01-13T16:24:45.960Z,59.38
2023-01-13T16:27:31.840Z,54.47
2023-01-13T16:30:23.377Z,48.50
2023-01-13T16:33:09.099Z,55.83
2023-01-13T16:36:11.913Z,53.72
2023-01-13T16:41:43.544Z,77.85
2023-01-13T16:44:29.452Z,96.47
2023-01-13T16:47:17.177Z,74.35
2023-01-13T16:50:04.072Z,92.32
2023-01-13T16:52:50.262Z,77.45
2023-01-13T16:55:37.216Z,68.50
2023-01-13T16:58:23.597Z,62.65
2023-01-13T17:01:19.094Z,58.75
2023-01-13T17:04:05.853Z,66.72
2023-01-13T17:07:00.247Z,54.70
2023-01-13T17:09:46.248Z,58.70
2023-01-13T17:12:32.184Z,62.88
2023-01-13T17:15:20.193Z,58.65
2023-01-13T17:18:06.335Z,67.00
2023-01-13T17:20:52.444Z,46.08
2023-01-13T17:23:38.408Z,82.30
2023-01-13T17:26:29.311Z,58.10
2023-01-13T17:29:18.355Z,55.28
2023-01-13T17:32:04.784Z,56.97
2023-01-13T17:34:51.125Z,60.85
2023-01-13T17:37:36.930Z,65.07
2023-01-13T17:40:24.251Z,85.95
2023-01-13T17:43:10.117Z,100.30
2023-01-13T17:45:57.593Z,104.22
2023-01-13T17:48:43.771Z,103.90
2023-01-13T17:51:30.266Z,108.97
2023-01-13T17:54:16.212Z,102.10
2023-01-13T17:57:02.020Z,114.65
2023-01-13T17:59:48.140Z,110.80
2023-01-13T18:02:34.460Z,102.97
2023-01-13T18:05:20.178Z,104.65
2023-01-13T18:08:06.255Z,119.20
2023-01-13T18:10:52.917Z,107.45
2023-01-13T18:13:41.271Z,114.28
2023-01-13T18:16:30.183Z,118.60
2023-01-13T18:19:35.232Z,108.20
2023-01-13T18:22:39.671Z,72.22
2023-01-13T18:25:44.396Z,56.20
2023-01-13T18:28:30.362Z,52.63
2023-01-13T18:31:16.517Z,45.88
2023-01-13T18:34:02.709Z,51.45
2023-01-13T18:36:48.474Z,48.63
2023-01-13T18:39:37.367Z,41.55
2023-01-13T18:42:41.768Z,56.30
2023-01-13T18:45:30.633Z,46.75
2023-01-13T18:48:16.781Z,46.90
2023-01-13T18:51:02.730Z,55.20
2023-01-13T18:53:48.605Z,70.90
2023-01-13T18:56:34.553Z,69.78
2023-01-13T18:59:20.428Z,73.63
2023-01-13T19:02:14.314Z,74.95
2023-01-13T19:05:00.392Z,72.32
2023-01-13T19:07:50.902Z,79.57
2023-01-13T19:10:37.616Z,66.38
2023-01-13T19:13:23.868Z,60.85
2023-01-13T19:16:09.802Z,54.80
2023-01-13T19:18:55.653Z,56.80
2023-01-13T19:21:41.567Z,60.40
2023-01-13T19:24:27.583Z,71.70
2023-01-13T19:27:15.032Z,72.72
2023-01-13T19:30:01.479Z,79.97
2023-01-13T19:32:48.279Z,74.30
2023-01-13T19:35:37.368Z,84.88
2023-01-13T19:38:24.197Z,75.53
2023-01-13T19:41:33.508Z,71.43
2023-01-13T19:44:37.897Z,70.13
2023-01-13T19:47:24.192Z,72.97
2023-01-13T19:50:10.781Z,69.20
2023-01-13T19:52:56.888Z,72.85
2023-01-13T19:55:48.507Z,70.38
2023-01-13T19:58:34.672Z,70.43
2023-01-13T20:01:21.468Z,77.35
2023-01-13T20:04:14.366Z,74.93
2023-01-13T20:09:46.762Z,68.60
2023-01-13T20:12:32.835Z,70.47
2023-01-13T20:15:18.603Z,74.63
2023-01-13T20:18:04.680Z,68.05
2023-01-13T20:20:50.733Z,65.45
2023-01-13T20:23:36.583Z,70.47
2023-01-13T20:26:22.387Z,69.07
2023-01-13T20:29:08.432Z,71.43
2023-01-13T20:31:54.596Z,69.80
2023-01-13T20:34:40.696Z,60.22
2023-01-13T20:37:26.874Z,72.18
2023-01-13T20:40:16.526Z,73.40
2023-01-13T20:43:02.787Z,67.70
2023-01-13T20:45:49.861Z,78.95
2023-01-13T20:48:36.078Z,86.20
2023-01-13T20:51:22.748Z,109.57
2023-01-13T20:54:09.445Z,93.10
2023-01-13T20:56:55.473Z,88.50
2023-01-13T20:59:42.286Z,88.40
2023-01-13T21:02:28.221Z,74.63
2023-01-13T21:05:14.397Z,80.68
2023-01-13T21:08:00.708Z,80.93
2023-01-13T21:10:46.474Z,85.53
2023-01-13T21:13:51.566Z,76.60
2023-01-13T21:16:37.741Z,76.93
2023-01-13T21:19:23.686Z,63.33
2023-01-13T21:22:09.660Z,58.70
2023-01-13T21:24:56.072Z,63.92
2023-01-13T21:27:44.155Z,48.08
2023-01-13T21:30:30.118Z,64.35
2023-01-13T21:33:17.167Z,63.53
2023-01-13T21:36:15.264Z,61.80
2023-01-13T21:39:01.052Z,73.00
2023-01-13T21:42:05.474Z,67.72
2023-01-13T21:45:10.217Z,66.18
2023-01-13T21:47:58.418Z,65.63
2023-01-13T21:50:45.368Z,88.13
2023-01-13T21:53:31.407Z,67.95
2023-01-13T21:56:17.313Z,64.78
2023-01-13T21:59:03.023Z,68.90
2023-01-13T22:02:23.021Z,67.82
2023-01-13T22:04:55.254Z,74.50
2023-01-13T22:07:41.761Z,71.88
2023-01-13T22:10:30.128Z,75.07
2023-01-13T22:13:34.528Z,80.72
2023-01-13T22:16:20.845Z,70.05
2023-01-13T22:19:07.958Z,66.25
2023-01-13T22:21:53.924Z,63.53
2023-01-13T22:24:43.720Z,68.68
2023-01-13T22:27:30.990Z,64.30
2023-01-13T22:30:21.831Z,68.25
2023-01-13T22:33:08.091Z,74.90
2023-01-13T22:35:55.274Z,72.93
2023-01-13T22:38:41.287Z,73.55
2023-01-13T22:41:27.464Z,71.25
2023-01-13T22:44:13.066Z,64.57
2023-01-13T22:46:59.127Z,65.72
2023-01-13T22:49:47.827Z,65.97
2023-01-13T22:52:34.700Z,74.30
2023-01-13T22:55:20.734Z,73.10
2023-01-13T22:58:06.805Z,70.47
2023-01-13T23:00:53.283Z,75.93
2023-01-13T23:03:39.557Z,69.03
2023-01-13T23:06:27.153Z,76.00
2023-01-13T23:09:12.910Z,71.05
2023-01-13T23:11:59.184Z,64.25
2023-01-13T23:14:45.247Z,71.78
2023-01-13T23:17:31.423Z,67.45
2023-01-13T23:20:17.586Z,64.93
2023-01-13T23:23:03.624Z,71.63
2023-01-13T23:25:51.067Z,70.80
2023-01-13T23:28:37.543Z,74.78
2023-01-13T23:31:23.262Z,62.97
2023-01-13T23:34:09.313Z,62.78
2023-01-13T23:36:55.390Z,71.13
2023-01-13T23:39:41.149Z,72.70
2023-01-13T23:42:26.972Z,68.50
2023-01-13T23:45:13.282Z,74.40
2023-01-13T23:47:59.344Z,80.05
2023-01-13T23:50:56.645Z,75.82
2023-01-13T23:53:45.238Z,75.75
2023-01-13T23:56:31.545Z,78.80
2023-01-13T23:59:17.573Z,73.13
